Time;durP1;ratioP1;P1;durP2;ratioP2;P2;SDS_P1;SDS_P2;PMS_P1;PMS_P2;Temp;Humidity;BMP_temperature;BMP_pressure;BME280_temperature;BME280_humidity;BME280_pressure;Samples;Min_cycle;Max_cycle;Signal;HPM_P1;HPM_P2
2022/06/03 00:02:09;;;;;;;11.13;5.97;;;;;;;;;;5049888;28;20049;-61
2022/06/03 00:04:57;;;;;;;10.17;6.63;;;;;;;;;;5060974;28;20105;-61
2022/06/03 00:07:35;;;;;;;12.77;6.77;;;;;;;;;;5068854;28;20114;-60
2022/06/03 00:10:10;;;;;;;13.30;6.37;;;;;;;;;;5068629;28;20055;-60
2022/06/03 00:12:36;;;;;;;9.10;6.03;;;;;;;;;;5050184;28;20474;-60
2022/06/03 00:15:20;;;;;;;13.53;6.80;;;;;;;;;;5049501;28;20040;-61
2022/06/03 00:17:46;;;;;;;11.00;6.20;;;;;;;;;;5049981;28;20056;-60
2022/06/03 00:20:35;;;;;;;11.90;6.90;;;;;;;;;;5049759;28;20071;-60
2022/06/03 00:23:20;;;;;;;14.80;6.43;;;;;;;;;;5050540;28;20037;-60
2022/06/03 00:25:46;;;;;;;25.67;8.60;;;;;;;;;;5049967;28;20076;-60
2022/06/03 00:28:15;;;;;;;12.37;6.87;;;;;;;;;;5031652;28;20084;-60
2022/06/03 00:30:56;;;;;;;14.97;8.00;;;;;;;;;;5049484;28;20048;-60
2022/06/03 00:33:41;;;;;;;15.30;7.63;;;;;;;;;;5054779;28;20052;-60
2022/06/03 00:36:25;;;;;;;11.83;6.60;;;;;;;;;;5068989;28;20056;-60
2022/06/03 00:39:10;;;;;;;14.17;7.60;;;;;;;;;;5069353;28;20048;-60
2022/06/03 00:41:56;;;;;;;14.50;7.13;;;;;;;;;;5067473;28;20068;-61
2022/06/03 00:44:40;;;;;;;12.17;7.53;;;;;;;;;;5068268;28;20076;-60
2022/06/03 00:47:25;;;;;;;14.43;6.70;;;;;;;;;;5057843;28;20522;-61
2022/06/03 00:49:51;;;;;;;12.07;7.20;;;;;;;;;;5050524;28;20049;-60
2022/06/03 00:52:46;;;;;;;17.47;7.30;;;;;;;;;;5053360;28;20047;-60
2022/06/03 00:55:18;;;;;;;14.23;7.53;;;;;;;;;;5048285;28;20407;-61
2022/06/03 00:57:45;;;;;;;16.27;7.53;;;;;;;;;;5053290;28;20048;-60
2022/06/03 01:00:23;;;;;;;16.47;7.93;;;;;;;;;;5053204;28;20111;-60
2022/06/03 01:02:58;;;;;;;11.73;7.60;;;;;;;;;;5071900;28;20040;-60
2022/06/03 01:05:33;;;;;;;13.77;8.20;;;;;;;;;;5073409;28;20405;-60
2022/06/03 01:08:02;;;;;;;13.50;8.27;;;;;;;;;;5073195;28;20464;-60
2022/06/03 01:10:28;;;;;;;16.77;8.47;;;;;;;;;;5073435;28;20048;-60
2022/06/03 01:12:57;;;;;;;15.17;8.47;;;;;;;;;;5072816;28;20067;-61
2022/06/03 01:15:38;;;;;;;12.93;8.70;;;;;;;;;;5071189;28;20094;-61
2022/06/03 01:18:17;;;;;;;19.87;8.43;;;;;;;;;;5052671;28;20584;-60
2022/06/03 01:21:01;;;;;;;13.93;8.77;;;;;;;;;;5053323;28;20041;-60
2022/06/03 01:23:42;;;;;;;11.93;8.10;;;;;;;;;;5063701;28;20085;-60
2022/06/03 01:26:27;;;;;;;15.00;8.87;;;;;;;;;;5071285;28;20050;-60
2022/06/03 01:29:16;;;;;;;18.80;9.53;;;;;;;;;;5071150;28;20048;-60
2022/06/03 01:32:01;;;;;;;25.63;9.03;;;;;;;;;;5058323;28;20048;-60
2022/06/03 01:34:27;;;;;;;14.43;8.90;;;;;;;;;;5052652;28;20055;-61
2022/06/03 01:37:11;;;;;;;15.17;8.77;;;;;;;;;;5052623;28;20132;-60
2022/06/03 01:39:43;;;;;;;15.60;8.90;;;;;;;;;;5051578;28;20057;-61
2022/06/03 01:42:15;;;;;;;15.80;9.00;;;;;;;;;;5052332;28;20053;-60
2022/06/03 01:44:54;;;;;;;17.10;9.70;;;;;;;;;;5052164;28;20427;-60
2022/06/03 01:47:26;;;;;;;13.23;8.50;;;;;;;;;;5052034;28;20140;-60
2022/06/03 01:49:58;;;;;;;12.90;8.53;;;;;;;;;;5052185;28;20052;-60
2022/06/03 01:52:30;;;;;;;17.73;9.47;;;;;;;;;;5052024;28;20049;-60
2022/06/03 01:55:05;;;;;;;16.43;8.97;;;;;;;;;;5051976;28;20055;-60
2022/06/03 01:57:50;;;;;;;14.83;8.63;;;;;;;;;;5069209;28;20088;-61
2022/06/03 02:00:24;;;;;;;16.27;8.80;;;;;;;;;;5072276;28;20422;-61
2022/06/03 02:02:53;;;;;;;20.60;9.00;;;;;;;;;;5061399;28;20135;-61
2022/06/03 02:05:38;;;;;;;14.00;9.13;;;;;;;;;;5052533;28;20518;-60
2022/06/03 02:08:13;;;;;;;17.43;9.93;;;;;;;;;;5052115;28;20478;-60
2022/06/03 02:10:47;;;;;;;17.13;10.10;;;;;;;;;;5052041;28;20547;-60
2022/06/03 02:13:22;;;;;;;21.07;10.43;;;;;;;;;;5052253;28;20041;-60
2022/06/03 02:16:07;;;;;;;20.47;10.27;;;;;;;;;;5051827;28;20131;-60
2022/06/03 02:18:52;;;;;;;18.13;10.60;;;;;;;;;;5051627;28;20044;-60
2022/06/03 02:21:33;;;;;;;17.40;10.10;;;;;;;;;;5051795;28;20155;-61
2022/06/03 02:24:11;;;;;;;19.63;9.20;;;;;;;;;;5051721;28;20041;-60
2022/06/03 02:26:37;;;;;;;22.00;10.80;;;;;;;;;;5066585;28;20107;-60
2022/06/03 02:32:02;;;;;;;23.07;10.37;;;;;;;;;;5051059;28;20084;-60
2022/06/03 02:34:35;;;;;;;19.63;10.37;;;;;;;;;;5052024;28;20051;-61
2022/06/03 02:37:04;;;;;;;20.60;9.87;;;;;;;;;;5051397;28;20727;-61
2022/06/03 02:39:53;;;;;;;22.73;10.13;;;;;;;;;;5033087;28;20132;-60
2022/06/03 02:42:31;;;;;;;18.50;11.87;;;;;;;;;;5065634;28;20066;-61
2022/06/03 02:45:01;;;;;;;18.40;10.83;;;;;;;;;;5070688;28;20050;-61
2022/06/03 02:47:33;;;;;;;21.97;11.70;;;;;;;;;;5072083;28;20067;-61
2022/06/03 02:50:18;;;;;;;21.70;11.20;;;;;;;;;;5071331;28;20056;-61
2022/06/03 02:52:56;;;;;;;17.47;10.40;;;;;;;;;;5069853;28;20121;-61
2022/06/03 02:55:35;;;;;;;24.17;11.33;;;;;;;;;;5061042;28;20045;-61
2022/06/03 02:58:20;;;;;;;22.20;11.67;;;;;;;;;;5050910;28;20092;-60
2022/06/03 03:00:46;;;;;;;18.50;11.33;;;;;;;;;;5051212;28;20048;-61
2022/06/03 03:03:28;;;;;;;20.70;11.83;;;;;;;;;;5049877;28;20380;-61
2022/06/03 03:06:01;;;;;;;26.57;11.63;;;;;;;;;;5051269;28;20461;-61
2022/06/03 03:08:46;;;;;;;18.70;12.33;;;;;;;;;;5051473;28;20053;-61
2022/06/03 03:11:15;;;;;;;21.17;12.03;;;;;;;;;;5069600;28;20364;-60
2022/06/03 03:14:01;;;;;;;22.83;11.87;;;;;;;;;;5070901;28;20470;-61
2022/06/03 03:16:36;;;;;;;23.67;12.93;;;;;;;;;;5070731;28;20513;-61
2022/06/03 03:19:14;;;;;;;23.77;12.57;;;;;;;;;;5070964;28;20063;-61
2022/06/03 03:21:40;;;;;;;27.57;13.93;;;;;;;;;;5070960;28;20068;-61
2022/06/03 03:24:25;;;;;;;29.50;15.03;;;;;;;;;;5066862;28;20451;-61
2022/06/03 03:26:54;;;;;;;26.03;13.37;;;;;;;;;;5050690;28;20049;-61
2022/06/03 03:29:29;;;;;;;24.67;12.63;;;;;;;;;;5050286;28;20470;-61
2022/06/03 03:31:58;;;;;;;25.00;13.73;;;;;;;;;;5050647;28;20097;-61
2022/06/03 03:34:30;;;;;;;22.63;12.97;;;;;;;;;;5050338;28;20053;-61
2022/06/03 03:36:59;;;;;;;23.80;13.33;;;;;;;;;;5050609;28;20506;-61
2022/06/03 03:39:34;;;;;;;23.03;13.17;;;;;;;;;;5050329;28;20163;-61
2022/06/03 03:42:03;;;;;;;29.97;12.83;;;;;;;;;;5048936;28;20052;-61
2022/06/03 03:44:41;;;;;;;25.10;12.63;;;;;;;;;;5050256;28;20049;-61
2022/06/03 03:47:26;;;;;;;22.57;13.00;;;;;;;;;;5060252;28;20072;-61
2022/06/03 03:50:19;;;;;;;22.60;13.00;;;;;;;;;;5069942;28;20044;-61
2022/06/03 03:52:51;;;;;;;23.57;13.57;;;;;;;;;;5069138;28;20131;-60
2022/06/03 03:55:23;;;;;;;20.30;12.80;;;;;;;;;;5048612;28;20052;-60
2022/06/03 03:58:08;;;;;;;20.27;11.30;;;;;;;;;;5032582;28;20048;-61
2022/06/03 04:00:53;;;;;;;24.93;13.10;;;;;;;;;;5049841;28;20051;-60
2022/06/03 04:03:19;;;;;;;28.07;12.30;;;;;;;;;;5049731;28;20109;-60
2022/06/03 04:05:51;;;;;;;26.53;13.50;;;;;;;;;;5049899;28;20063;-60
2022/06/03 04:08:17;;;;;;;25.23;13.03;;;;;;;;;;5051426;28;20052;-60
2022/06/03 04:10:55;;;;;;;25.07;11.63;;;;;;;;;;5063425;28;20060;-60
2022/06/03 04:13:21;;;;;;;22.87;12.23;;;;;;;;;;5063253;28;20045;-61
2022/06/03 04:16:06;;;;;;;18.80;11.30;;;;;;;;;;5062362;28;20094;-60
2022/06/03 04:18:41;;;;;;;20.63;12.30;;;;;;;;;;5064611;28;20040;-61
2022/06/03 04:21:14;;;;;;;29.03;14.20;;;;;;;;;;5060219;28;20168;-60
2022/06/03 04:24:00;;;;;;;18.60;12.10;;;;;;;;;;5052581;28;20057;-61
2022/06/03 04:26:41;;;;;;;18.30;11.87;;;;;;;;;;5026010;28;20059;-60
2022/06/03 04:29:41;;;;;;;19.63;11.53;;;;;;;;;;5064268;28;20530;-60
2022/06/03 04:32:10;;;;;;;19.13;11.77;;;;;;;;;;5060677;28;20041;-60
2022/06/03 04:34:55;;;;;;;23.60;12.57;;;;;;;;;;5050703;28;20140;-60
2022/06/03 04:37:26;;;;;;;20.80;13.70;;;;;;;;;;5065055;28;20048;-61
2022/06/03 04:40:15;;;;;;;17.17;11.90;;;;;;;;;;5069410;28;20051;-60
2022/06/03 04:43:00;;;;;;;24.27;12.90;;;;;;;;;;5068379;28;20159;-61
2022/06/03 04:45:45;;;;;;;21.80;11.27;;;;;;;;;;5058879;28;20048;-60
2022/06/03 04:48:29;;;;;;;21.13;11.83;;;;;;;;;;5059361;28;20048;-60
2022/06/03 04:51:04;;;;;;;20.20;12.00;;;;;;;;;;5064617;28;20052;-60
2022/06/03 04:53:43;;;;;;;19.23;11.17;;;;;;;;;;5060406;28;20049;-60
2022/06/03 04:56:27;;;;;;;18.73;12.13;;;;;;;;;;5049018;28;20052;-60
2022/06/03 04:59:12;;;;;;;20.60;12.17;;;;;;;;;;5061882;28;20043;-60
2022/06/03 05:01:57;;;;;;;13.93;10.80;;;;;;;;;;5061597;28;20159;-60
2022/06/03 05:04:41;;;;;;;17.57;11.90;;;;;;;;;;5055654;28;20103;-61
2022/06/03 05:07:26;;;;;;;17.23;10.67;;;;;;;;;;5068501;28;20044;-61
2022/06/03 05:10:01;;;;;;;21.60;10.03;;;;;;;;;;5068394;28;20534;-60
2022/06/03 05:12:37;;;;;;;18.83;10.93;;;;;;;;;;5068768;28;20048;-61
2022/06/03 05:15:03;;;;;;;16.23;11.17;;;;;;;;;;5068605;28;20063;-60
2022/06/03 05:17:39;;;;;;;18.03;11.27;;;;;;;;;;5050812;28;20144;-61
2022/06/03 05:20:17;;;;;;;20.87;10.77;;;;;;;;;;5048472;28;20049;-61
2022/06/03 05:22:46;;;;;;;15.67;10.33;;;;;;;;;;5049026;28;20503;-61
2022/06/03 05:25:12;;;;;;;16.93;10.13;;;;;;;;;;5049198;28;20053;-61
2022/06/03 05:27:57;;;;;;;14.93;10.03;;;;;;;;;;5059063;28;20052;-61
2022/06/03 05:30:26;;;;;;;15.13;9.50;;;;;;;;;;5052355;28;20068;-61
2022/06/03 05:33:05;;;;;;;15.13;9.20;;;;;;;;;;5059573;28;20507;-60
2022/06/03 05:35:50;;;;;;;13.30;9.13;;;;;;;;;;5055920;28;20110;-61
2022/06/03 05:38:34;;;;;;;13.43;9.53;;;;;;;;;;5059815;28;20102;-60
2022/06/03 05:42:23;;;;;;;24.90;9.87;;;;;;;;;;5060403;28;20056;-60
2022/06/03 05:44:08;;;;;;;13.87;8.43;;;;;;;;;;5056734;28;20507;-60
2022/06/03 05:46:40;;;;;;;10.90;7.63;;;;;;;;;;5065133;28;20032;-60
2022/06/03 05:49:10;;;;;;;14.20;7.60;;;;;;;;;;5058583;28;20129;-59
2022/06/03 05:51:48;;;;;;;11.07;6.80;;;;;;;;;;5062100;28;20056;-60
2022/06/03 05:54:14;;;;;;;13.13;7.13;;;;;;;;;;5043487;28;20049;-60
2022/06/03 05:56:45;;;;;;;15.07;6.60;;;;;;;;;;5061311;28;20064;-62
2022/06/03 05:59:20;;;;;;;8.33;6.17;;;;;;;;;;5059281;28;20044;-61
2022/06/03 06:01:56;;;;;;;12.40;6.23;;;;;;;;;;5064221;28;20127;-61
2022/06/03 06:04:38;;;;;;;10.10;5.43;;;;;;;;;;5057024;28;20048;-61
2022/06/03 06:07:10;;;;;;;8.53;5.83;;;;;;;;;;5061336;28;20037;-61
2022/06/03 06:09:57;;;;;;;11.80;6.53;;;;;;;;;;5061270;28;20766;-60
2022/06/03 06:12:30;;;;;;;9.03;5.53;;;;;;;;;;5060638;28;20593;-61
2022/06/03 06:15:14;;;;;;;14.80;5.63;;;;;;;;;;5057913;28;20048;-60
2022/06/03 06:17:43;;;;;;;12.13;5.50;;;;;;;;;;5059566;28;20777;-60
2022/06/03 06:20:39;;;;;;;12.83;5.00;;;;;;;;;;5062367;28;20086;-60
2022/06/03 06:23:12;;;;;;;8.17;4.43;;;;;;;;;;5052984;28;20037;-60
2022/06/03 06:25:39;;;;;;;8.57;4.57;;;;;;;;;;5060295;28;20129;-61
2022/06/03 06:28:17;;;;;;;7.50;4.30;;;;;;;;;;5057695;28;20055;-61
2022/06/03 06:30:59;;;;;;;6.23;4.67;;;;;;;;;;5060557;28;20044;-61
2022/06/03 06:33:25;;;;;;;8.50;4.53;;;;;;;;;;5057754;28;20047;-61
2022/06/03 06:36:05;;;;;;;7.57;4.00;;;;;;;;;;5062429;28;20136;-60
2022/06/03 06:38:41;;;;;;;5.07;3.50;;;;;;;;;;5064242;28;20040;-60
2022/06/03 06:41:27;;;;;;;8.97;4.13;;;;;;;;;;5060428;28;20144;-60
2022/06/03 06:43:54;;;;;;;7.80;4.07;;;;;;;;;;5060415;28;20040;-61
2022/06/03 06:46:39;;;;;;;8.87;4.17;;;;;;;;;;5062006;28;20040;-61
2022/06/03 06:49:09;;;;;;;9.80;4.40;;;;;;;;;;5059254;28;20506;-61
2022/06/03 06:51:56;;;;;;;8.53;4.53;;;;;;;;;;5061761;28;20589;-60
2022/06/03 06:54:36;;;;;;;6.57;4.17;;;;;;;;;;5056037;28;20129;-61
2022/06/03 06:57:10;;;;;;;9.23;4.10;;;;;;;;;;5059741;28;20044;-61
2022/06/03 06:59:59;;;;;;;7.07;3.80;;;;;;;;;;5042240;28;20048;-61
2022/06/03 07:02:25;;;;;;;7.70;4.13;;;;;;;;;;5053969;28;20523;-61
2022/06/03 07:04:56;;;;;;;13.77;5.20;;;;;;;;;;5058388;28;20082;-61
2022/06/03 07:07:32;;;;;;;11.97;5.17;;;;;;;;;;5058706;28;20036;-61
2022/06/03 07:10:03;;;;;;;6.23;4.47;;;;;;;;;;5060169;28;20044;-60
2022/06/03 07:12:38;;;;;;;10.60;3.83;;;;;;;;;;5057034;28;20079;-60
2022/06/03 07:15:07;;;;;;;6.77;4.30;;;;;;;;;;5059161;28;20056;-61
2022/06/03 07:20:27;;;;;;;5.70;3.63;;;;;;;;;;5056719;28;20407;-61
2022/06/03 07:22:58;;;;;;;9.13;4.37;;;;;;;;;;5058492;28;20052;-61
2022/06/03 07:25:26;;;;;;;9.10;4.33;;;;;;;;;;5060057;28;20091;-61
2022/06/03 07:27:56;;;;;;;7.73;5.17;;;;;;;;;;5060972;28;20040;-61
2022/06/03 07:30:45;;;;;;;8.27;3.53;;;;;;;;;;5061374;28;20043;-61
2022/06/03 07:33:35;;;;;;;6.43;3.37;;;;;;;;;;5026720;28;20060;-62
2022/06/03 07:36:01;;;;;;;8.10;3.50;;;;;;;;;;5061590;28;20094;-61
2022/06/03 07:38:48;;;;;;;5.43;3.40;;;;;;;;;;5057138;28;20453;-61
2022/06/03 07:41:18;;;;;;;5.40;3.30;;;;;;;;;;5055770;28;20053;-61
2022/06/03 07:43:54;;;;;;;6.30;2.93;;;;;;;;;;5056820;28;20133;-61
2022/06/03 07:46:23;;;;;;;7.30;3.20;;;;;;;;;;5057659;28;20071;-61
2022/06/03 07:48:50;;;;;;;5.10;2.70;;;;;;;;;;5054367;28;20052;-62
2022/06/03 07:51:16;;;;;;;6.57;3.03;;;;;;;;;;5049857;28;20115;-61
2022/06/03 07:54:00;;;;;;;11.80;3.07;;;;;;;;;;5049805;28;20511;-61
2022/06/03 07:56:31;;;;;;;7.00;2.93;;;;;;;;;;5050040;28;20102;-61
2022/06/03 07:58:58;;;;;;;6.57;2.70;;;;;;;;;;5049222;28;20045;-61
2022/06/03 08:01:29;;;;;;;8.37;3.30;;;;;;;;;;5049376;28;20051;-61
2022/06/03 08:03:55;;;;;;;4.63;2.80;;;;;;;;;;5049488;28;20049;-61
2022/06/03 08:06:31;;;;;;;7.90;2.70;;;;;;;;;;5049510;28;20087;-61
2022/06/03 08:11:44;;;;;;;5.17;2.50;;;;;;;;;;5048284;28;20052;-61
2022/06/03 08:14:10;;;;;;;5.90;2.10;;;;;;;;;;5049104;28;20045;-61
2022/06/03 08:16:37;;;;;;;7.73;3.20;;;;;;;;;;5049600;28;20052;-61
2022/06/03 08:19:07;;;;;;;5.23;2.50;;;;;;;;;;5049240;28;20132;-61
2022/06/03 08:21:55;;;;;;;5.30;2.33;;;;;;;;;;5049511;28;20064;-61
2022/06/03 08:24:23;;;;;;;9.17;2.87;;;;;;;;;;5049038;28;20045;-61
2022/06/03 08:26:52;;;;;;;4.60;2.40;;;;;;;;;;5048689;28;20459;-61
2022/06/03 08:29:37;;;;;;;4.50;2.50;;;;;;;;;;5049528;28;20045;-61
2022/06/03 08:32:07;;;;;;;5.03;2.83;;;;;;;;;;5048716;28;20064;-61
2022/06/03 08:34:39;;;;;;;4.53;2.30;;;;;;;;;;5048870;28;20560;-61
2022/06/03 08:37:08;;;;;;;5.43;2.60;;;;;;;;;;5047619;28;20459;-62
2022/06/03 08:39:34;;;;;;;6.43;2.40;;;;;;;;;;5049508;28;20099;-61
2022/06/03 08:42:18;;;;;;;6.53;3.07;;;;;;;;;;5048983;28;20148;-62
2022/06/03 08:45:00;;;;;;;4.53;2.40;;;;;;;;;;5049428;28;20127;-61
2022/06/03 08:47:37;;;;;;;5.50;2.50;;;;;;;;;;5049323;28;20041;-61
2022/06/03 08:50:14;;;;;;;7.57;2.30;;;;;;;;;;5049128;28;20045;-61
2022/06/03 08:52:51;;;;;;;4.80;2.10;;;;;;;;;;5048719;28;20525;-61
2022/06/03 08:55:36;;;;;;;5.70;1.90;;;;;;;;;;5048130;28;20040;-62
2022/06/03 08:58:07;;;;;;;5.90;2.37;;;;;;;;;;5048877;28;20048;-61
2022/06/03 09:00:51;;;;;;;5.63;2.17;;;;;;;;;;5049019;28;20384;-61
2022/06/03 09:03:19;;;;;;;3.67;2.20;;;;;;;;;;5048657;28;20498;-61
2022/06/03 09:05:50;;;;;;;3.67;2.00;;;;;;;;;;5049086;28;20235;-61
2022/06/03 09:08:30;;;;;;;3.93;2.30;;;;;;;;;;5048147;28;20065;-61
2022/06/03 09:10:59;;;;;;;6.87;2.73;;;;;;;;;;5050388;28;20587;-61
2022/06/03 09:13:28;;;;;;;4.07;1.60;;;;;;;;;;5053045;28;20049;-61
2022/06/03 09:15:55;;;;;;;3.80;1.90;;;;;;;;;;5053323;28;20400;-61
2022/06/03 09:18:40;;;;;;;5.30;2.00;;;;;;;;;;5052655;28;20460;-61
2022/06/03 09:21:14;;;;;;;3.53;2.07;;;;;;;;;;5052762;28;20049;-62
2022/06/03 09:23:42;;;;;;;4.27;2.33;;;;;;;;;;5051749;28;20056;-61
2022/06/03 09:26:13;;;;;;;4.68;1.95;;;;;;;;;;5051074;28;20049;-61
2022/06/03 09:28:39;;;;;;;5.18;1.85;;;;;;;;;;5052777;28;20052;-61
2022/06/03 09:31:08;;;;;;;3.75;2.30;;;;;;;;;;5052567;28;20049;-62
2022/06/03 09:33:36;;;;;;;5.28;2.05;;;;;;;;;;5052765;28;20044;-61
2022/06/03 09:36:05;;;;;;;6.55;2.90;;;;;;;;;;5051684;28;20037;-62
2022/06/03 09:38:38;;;;;;;4.35;2.05;;;;;;;;;;5052722;28;20051;-62
2022/06/03 09:41:05;;;;;;;3.90;2.05;;;;;;;;;;5050886;28;20071;-61
2022/06/03 09:43:33;;;;;;;3.65;1.80;;;;;;;;;;5052342;28;20120;-61
2022/06/03 09:46:00;;;;;;;4.03;1.98;;;;;;;;;;5051905;28;20507;-62
2022/06/03 09:48:29;;;;;;;3.15;1.98;;;;;;;;;;5052217;28;20557;-61
2022/06/03 09:50:56;;;;;;;3.03;1.60;;;;;;;;;;5051834;28;20564;-61
2022/06/03 09:53:26;;;;;;;5.30;2.20;;;;;;;;;;5051814;28;20118;-61
2022/06/03 09:55:55;;;;;;;4.85;2.00;;;;;;;;;;5051619;28;20049;-62
2022/06/03 09:58:23;;;;;;;4.72;2.75;;;;;;;;;;5051693;28;20052;-61
2022/06/03 10:00:50;;;;;;;4.28;1.77;;;;;;;;;;5051673;28;20049;-61
2022/06/03 10:03:16;;;;;;;5.05;1.60;;;;;;;;;;5052188;28;20091;-61
2022/06/03 10:05:46;;;;;;;4.35;1.73;;;;;;;;;;5051800;28;20047;-62
2022/06/03 10:08:12;;;;;;;3.10;1.90;;;;;;;;;;5052037;28;20594;-62
2022/06/03 10:13:23;;;;;;;3.67;1.55;;;;;;;;;;5051587;28;20049;-61
2022/06/03 10:15:56;;;;;;;3.85;1.70;;;;;;;;;;5052038;28;20036;-61
2022/06/03 10:18:22;;;;;;;5.82;1.67;;;;;;;;;;5051853;28;20060;-62
2022/06/03 10:20:49;;;;;;;3.97;1.80;;;;;;;;;;5051761;28;20517;-62
2022/06/03 10:23:15;;;;;;;4.50;1.60;;;;;;;;;;5049785;28;20238;-62
2022/06/03 10:25:42;;;;;;;3.30;1.90;;;;;;;;;;5051714;28;20128;-62
2022/06/03 10:28:10;;;;;;;3.47;1.63;;;;;;;;;;5051497;28;20037;-61
2022/06/03 10:30:37;;;;;;;2.95;1.30;;;;;;;;;;5051707;28;20041;-62
2022/06/03 10:33:06;;;;;;;2.35;1.30;;;;;;;;;;5050816;28;20095;-61
2022/06/03 10:35:38;;;;;;;3.30;1.77;;;;;;;;;;5051605;28;20044;-61
2022/06/03 10:38:04;;;;;;;4.15;1.90;;;;;;;;;;5049879;28;20056;-61
2022/06/03 10:40:31;;;;;;;3.42;1.50;;;;;;;;;;5051330;28;20049;-62
2022/06/03 10:42:59;;;;;;;3.63;1.60;;;;;;;;;;5050863;28;20526;-62
2022/06/03 10:45:26;;;;;;;4.10;1.70;;;;;;;;;;5051122;28;20052;-61
2022/06/03 10:47:52;;;;;;;4.28;1.60;;;;;;;;;;5051076;28;20510;-62
2022/06/03 10:50:27;;;;;;;3.53;1.50;;;;;;;;;;5051444;28;20044;-61
2022/06/03 11:01:27;;;;;;;4.22;1.60;;;;;;;;;;5050587;28;20466;-62
2022/06/03 11:03:54;;;;;;;4.55;1.58;;;;;;;;;;5050992;28;20055;-62
2022/06/03 11:06:34;;;;;;;4.57;1.58;;;;;;;;;;5055187;28;20522;-61
2022/06/03 11:09:01;;;;;;;5.50;1.60;;;;;;;;;;5050334;28;20043;-62
2022/06/03 11:11:53;;;;;;;3.10;1.50;;;;;;;;;;5068523;28;20051;-62
2022/06/03 11:14:25;;;;;;;2.40;1.30;;;;;;;;;;5069113;28;20048;-62
2022/06/03 11:16:58;;;;;;;2.85;1.85;;;;;;;;;;5063578;28;20045;-62
2022/06/03 11:19:24;;;;;;;3.28;1.40;;;;;;;;;;5052299;28;20128;-62
2022/06/03 11:22:10;;;;;;;2.88;1.30;;;;;;;;;;5062358;28;20042;-62
2022/06/03 11:24:36;;;;;;;3.75;1.58;;;;;;;;;;5065908;28;20039;-62
2022/06/03 11:27:05;;;;;;;3.38;1.40;;;;;;;;;;5062917;28;20049;-62
2022/06/03 11:29:33;;;;;;;3.03;1.38;;;;;;;;;;5068149;28;20049;-62
2022/06/03 11:32:01;;;;;;;2.80;1.40;;;;;;;;;;5065846;28;20102;-62
2022/06/03 11:34:30;;;;;;;4.45;1.98;;;;;;;;;;5059507;28;20083;-62
2022/06/03 11:36:58;;;;;;;3.08;1.50;;;;;;;;;;5067449;28;20394;-62
2022/06/03 11:39:28;;;;;;;2.25;1.33;;;;;;;;;;5054347;28;20044;-62
2022/06/03 11:41:57;;;;;;;4.30;1.45;;;;;;;;;;5060630;28;20450;-62
2022/06/03 11:44:42;;;;;;;4.80;1.80;;;;;;;;;;5068282;28;20130;-62
2022/06/03 11:47:12;;;;;;;2.47;1.30;;;;;;;;;;5061484;28;20048;-62
2022/06/03 11:49:39;;;;;;;3.22;1.40;;;;;;;;;;5053286;28;20120;-62
2022/06/03 11:52:05;;;;;;;3.17;1.25;;;;;;;;;;5069491;28;20079;-61
2022/06/03 11:54:31;;;;;;;4.00;1.83;;;;;;;;;;5063257;28;20078;-62
2022/06/03 11:56:59;;;;;;;2.35;1.33;;;;;;;;;;5059066;28;20048;-62
2022/06/03 11:59:46;;;;;;;4.20;1.30;;;;;;;;;;5068709;28;20101;-62
2022/06/03 12:02:18;;;;;;;3.53;1.33;;;;;;;;;;5059025;28;20041;-62
2022/06/03 12:04:44;;;;;;;;;;;;;;;;;;5060217;28;20048;-62
2022/06/03 12:07:24;;;;;;;2.30;1.27;;;;;;;;;;5047727;28;19963;-62
2022/06/03 12:10:03;;;;;;;4.82;1.75;;;;;;;;;;5063527;28;20048;-62
2022/06/03 12:15:29;;;;;;;3.78;1.45;;;;;;;;;;5049402;28;20049;-62
2022/06/03 12:17:56;;;;;;;3.92;1.40;;;;;;;;;;5049222;28;20057;-62
2022/06/03 12:20:31;;;;;;;2.95;1.65;;;;;;;;;;5048992;28;20702;-62
2022/06/03 12:22:57;;;;;;;4.53;1.40;;;;;;;;;;5049211;28;20110;-62
2022/06/03 12:25:47;;;;;;;4.15;1.30;;;;;;;;;;5049146;28;20080;-59
2022/06/03 12:28:19;;;;;;;4.28;1.63;;;;;;;;;;5046350;28;20639;-59
2022/06/03 12:30:46;;;;;;;5.18;1.50;;;;;;;;;;5048100;28;20564;-59
2022/06/03 12:33:33;;;;;;;6.18;1.35;;;;;;;;;;5048955;28;20450;-59
2022/06/03 12:35:59;;;;;;;3.92;1.30;;;;;;;;;;5038088;28;20057;-59
2022/06/03 12:38:39;;;;;;;4.38;1.92;;;;;;;;;;5048744;28;20048;-62
2022/06/03 12:41:05;;;;;;;2.17;1.10;;;;;;;;;;5048551;28;20057;-62
2022/06/03 12:43:33;;;;;;;2.83;1.00;;;;;;;;;;5049449;28;20133;-62
2022/06/03 12:46:10;;;;;;;3.63;1.48;;;;;;;;;;5048752;28;20049;-62
2022/06/03 12:48:45;;;;;;;5.10;1.58;;;;;;;;;;5049363;28;20132;-62
2022/06/03 12:51:33;;;;;;;5.25;1.60;;;;;;;;;;5049179;28;20131;-62
2022/06/03 12:54:03;;;;;;;4.60;1.40;;;;;;;;;;5048826;28;20052;-62
2022/06/03 12:56:40;;;;;;;3.60;1.60;;;;;;;;;;5049128;28;20048;-62
2022/06/03 12:59:11;;;;;;;4.35;1.25;;;;;;;;;;5048908;28;20053;-61
2022/06/03 13:01:44;;;;;;;2.35;1.27;;;;;;;;;;5049184;28;20094;-61
2022/06/03 13:04:28;;;;;;;2.35;1.10;;;;;;;;;;5049027;28;20048;-62
2022/06/03 13:07:09;;;;;;;3.15;1.65;;;;;;;;;;5048519;28;20041;-62
2022/06/03 13:09:48;;;;;;;4.45;1.45;;;;;;;;;;5048962;28;20507;-62
2022/06/03 13:12:19;;;;;;;4.32;1.20;;;;;;;;;;5049124;28;20116;-62
2022/06/03 13:14:45;;;;;;;1.83;1.30;;;;;;;;;;5048845;28;20051;-62
2022/06/03 13:17:31;;;;;;;3.03;1.40;;;;;;;;;;5048814;28;20419;-62
2022/06/03 13:20:00;;;;;;;2.70;1.33;;;;;;;;;;5048590;28;20120;-62
2022/06/03 13:22:29;;;;;;;3.17;1.30;;;;;;;;;;5048729;28;20490;-62
2022/06/03 13:25:13;;;;;;;2.35;1.20;;;;;;;;;;5048623;28;20118;-62
2022/06/03 13:27:39;;;;;;;2.15;1.20;;;;;;;;;;5048759;28;20107;-62
2022/06/03 13:30:13;;;;;;;2.33;1.08;;;;;;;;;;5047637;28;20099;-62
2022/06/03 13:32:59;;;;;;;2.83;1.50;;;;;;;;;;5048378;28;20163;-62
2022/06/03 13:35:33;;;;;;;3.88;1.30;;;;;;;;;;5048790;28;20049;-62
2022/06/03 13:38:14;;;;;;;3.13;1.35;;;;;;;;;;5048541;28;20049;-62
2022/06/03 13:42:57;;;;;;;3.20;1.20;;;;;;;;;;5048521;28;20053;-62
2022/06/03 13:43:26;;;;;;;3.53;1.13;;;;;;;;;;5048550;28;20568;-61
2022/06/03 13:46:01;;;;;;;3.72;1.13;;;;;;;;;;5048316;28;20049;-62
2022/06/03 13:48:27;;;;;;;2.53;1.10;;;;;;;;;;5048695;28;20056;-62
2022/06/03 13:50:54;;;;;;;3.08;1.20;;;;;;;;;;5048591;28;20056;-62
2022/06/03 13:53:25;;;;;;;2.15;1.10;;;;;;;;;;5048837;28;20049;-62
2022/06/03 13:55:51;;;;;;;;;;;;;;;;;;5049105;28;20128;-62
2022/06/03 13:58:29;;;;;;;2.90;1.27;;;;;;;;;;5050449;28;20007;-62
2022/06/03 14:00:59;;;;;;;3.22;1.42;;;;;;;;;;5052169;28;20045;-61
2022/06/03 14:03:49;;;;;;;2.40;1.23;;;;;;;;;;5050672;28;20073;-62
2022/06/03 14:06:29;;;;;;;2.70;1.10;;;;;;;;;;5052511;28;20057;-62
2022/06/03 14:09:03;;;;;;;2.92;1.10;;;;;;;;;;5052182;28;20045;-62
2022/06/03 14:11:38;;;;;;;4.82;1.25;;;;;;;;;;5051737;28;20076;-62
2022/06/03 14:14:04;;;;;;;3.08;1.10;;;;;;;;;;5051333;28;20152;-62
2022/06/03 14:16:46;;;;;;;4.85;1.27;;;;;;;;;;5051888;28;20098;-62
2022/06/03 14:19:12;;;;;;;4.63;1.17;;;;;;;;;;5051908;28;20392;-62
2022/06/03 14:21:41;;;;;;;5.55;1.95;;;;;;;;;;5051789;28;20053;-62
2022/06/03 14:24:27;;;;;;;5.05;1.67;;;;;;;;;;5051469;28;20037;-61
2022/06/03 14:26:57;;;;;;;2.40;1.10;;;;;;;;;;5051552;28;20052;-62
2022/06/03 14:29:40;;;;;;;4.63;1.08;;;;;;;;;;5051846;28;20041;-62
2022/06/03 14:32:12;;;;;;;2.40;1.15;;;;;;;;;;5051606;28;20048;-62
2022/06/03 14:34:42;;;;;;;3.33;1.63;;;;;;;;;;5050072;28;20090;-62
2022/06/03 14:37:13;;;;;;;2.75;1.65;;;;;;;;;;5051421;28;20423;-62
2022/06/03 14:39:39;;;;;;;3.42;1.42;;;;;;;;;;5051623;28;20049;-62
2022/06/03 14:42:10;;;;;;;4.10;1.05;;;;;;;;;;5053907;28;20048;-62
2022/06/03 14:44:37;;;;;;;2.53;0.90;;;;;;;;;;5051614;28;20060;-62
2022/06/03 14:47:03;;;;;;;5.53;1.30;;;;;;;;;;5056718;28;20043;-62
2022/06/03 14:49:38;;;;;;;4.07;1.00;;;;;;;;;;5051225;28;20052;-61
2022/06/03 14:52:11;;;;;;;4.07;1.10;;;;;;;;;;5053365;28;20102;-62
2022/06/03 14:54:40;;;;;;;2.92;1.30;;;;;;;;;;5061128;28;20048;-62
2022/06/03 14:57:08;;;;;;;4.60;1.05;;;;;;;;;;5060748;28;20037;-62
2022/06/03 14:59:49;;;;;;;2.50;1.13;;;;;;;;;;5056322;28;20053;-62
2022/06/03 15:02:15;;;;;;;4.38;1.00;;;;;;;;;;5051135;28;20052;-62
2022/06/03 15:04:46;;;;;;;3.35;1.30;;;;;;;;;;5065669;28;20048;-62
2022/06/03 15:07:19;;;;;;;4.28;1.67;;;;;;;;;;5070071;28;20047;-62
2022/06/03 15:09:48;;;;;;;3.08;0.90;;;;;;;;;;5066506;28;20109;-62
2022/06/03 15:12:19;;;;;;;2.78;1.20;;;;;;;;;;5066037;28;20426;-62
2022/06/03 15:14:45;;;;;;;4.40;1.20;;;;;;;;;;5056948;28;20041;-62
2022/06/03 15:17:12;;;;;;;2.92;1.00;;;;;;;;;;5055078;28;20045;-62
2022/06/03 15:19:43;;;;;;;2.80;1.00;;;;;;;;;;5050468;28;20087;-62
2022/06/03 15:22:30;;;;;;;5.03;1.23;;;;;;;;;;5051200;28;20106;-62
2022/06/03 15:25:01;;;;;;;3.92;1.33;;;;;;;;;;5066474;28;20048;-62
2022/06/03 15:27:27;;;;;;;;;;;;;;;;;;5051273;28;20094;-62
2022/06/03 15:29:54;;;;;;;3.63;1.20;;;;;;;;;;5050935;28;19928;-62
2022/06/03 15:32:20;;;;;;;2.08;0.98;;;;;;;;;;5050379;28;20041;-61
2022/06/03 15:34:47;;;;;;;2.33;1.00;;;;;;;;;;5050798;28;20064;-62
2022/06/03 15:37:13;;;;;;;4.38;1.30;;;;;;;;;;5049047;28;20059;-62
2022/06/03 15:39:39;;;;;;;6.95;1.33;;;;;;;;;;5068762;28;20052;-62
2022/06/03 15:42:20;;;;;;;6.57;1.70;;;;;;;;;;5069682;28;20416;-62